Accueil
METAR-TAF:

METAR-TAF

Aéroports :

Aéroport international de Cambridge

Cambridge, Angleterre

latitude: 52-12N, longitude: 000-11E, altitude: 15 m

Observation

Le bulletin a été fait il y a 2 heures et 20 minutes, à 16:50 UTC
Vent 16 kt de ouest/sud-ouest
Température 24°C
Humidité 50%
Pression 1017 hPa
Visibilité 10 km ou plus
Nuages épars à une hauteur de 4000 ft

METAR: EGSC 201650Z 25016KT 9999 SCT040 24/13 Q1017

Heure: 20:10 (19:10 UTC)

Prévision

Le bulletin a été fait il y a 5 heures et 7 minutes, à 14:03 UTC
Prévision valable du 20 à 15 UTC au 20 à 19 UTC
Vent 9 kt de sud-ouest
Visibilité 10 km ou plus
Nuages épars à une hauteur de 2000 ft
Probabilité 30% :
Temporairement
du 20 à 15 UTC au 20 à 18 UTC
Vent 15 kt de ouest/sud-ouest avec des rafales jusqu'à 25 kt

TAF: EGSC 201403Z 2015/2019 22009KT 9999 SCT020 PROB30 TEMPO 2015/2018 25015G25KT

Observations et prévisions météorologiques de plus de 4000 aéroports (messages METAR et TAF).

Les stations disponibles sont représentées par des disques jaunes et rouges sur la carte.

Passer la souris dessus pour voir le nom de la station.

Cliquer dessus pour voir les observations et prévisions météorologiques.

Pour changer de carte: cliquez sur les boutons verts avec une croix noire pour zoomer, sur le bouton vert avec un tiret pour effectuer un zoom arrière, ou sur les flèches vertes pour les cartes adjacentes.


METAR-TAF: